createdAt,value
2019-02-11T00:01:28.262Z,99.90
2019-02-11T00:03:59.703Z,99.90
2019-02-11T00:06:29.654Z,99.90
2019-02-11T00:15:11.594Z,99.90
2019-02-11T00:17:41.668Z,99.90
2019-02-11T00:20:11.749Z,99.90
2019-02-11T00:22:41.544Z,99.90
2019-02-11T00:25:11.812Z,99.90
2019-02-11T00:27:41.822Z,99.90
2019-02-11T00:30:11.696Z,99.90
2019-02-11T00:32:41.512Z,99.90
2019-02-11T00:35:11.236Z,99.90
2019-02-11T00:37:41.201Z,99.90
2019-02-11T00:40:10.991Z,99.90
2019-02-11T00:42:40.838Z,99.90
2019-02-11T00:45:10.726Z,99.90
2019-02-11T00:47:40.554Z,99.90
2019-02-11T00:50:10.781Z,99.90
2019-02-11T00:52:40.670Z,99.90
2019-02-11T00:55:10.719Z,99.90
2019-02-11T00:57:40.642Z,99.90
2019-02-11T01:00:12.600Z,99.90
2019-02-11T01:02:42.705Z,99.90
2019-02-11T01:05:12.644Z,99.90
2019-02-11T01:07:42.533Z,99.90
2019-02-11T01:10:12.876Z,99.90
2019-02-11T01:12:42.717Z,99.90
2019-02-11T01:15:13.876Z,99.90
2019-02-11T01:17:43.701Z,99.90
2019-02-11T01:20:13.698Z,99.90
2019-02-11T01:22:43.521Z,99.90
2019-02-11T01:25:13.448Z,99.90
2019-02-11T01:27:43.418Z,99.90
2019-02-11T01:30:13.637Z,99.90
2019-02-11T01:32:43.407Z,99.90
2019-02-11T01:35:13.361Z,99.90
2019-02-11T01:37:43.191Z,99.90
2019-02-11T01:40:13.203Z,99.90
2019-02-11T01:42:43.086Z,99.90
2019-02-11T01:45:13.890Z,99.90
2019-02-11T01:47:43.823Z,99.90
2019-02-11T01:50:14.153Z,99.90
2019-02-11T01:52:44.024Z,99.90
2019-02-11T01:55:13.834Z,99.90
2019-02-11T01:57:43.829Z,99.90
2019-02-11T02:00:14.483Z,99.90
2019-02-11T02:02:44.405Z,99.90
2019-02-11T02:05:14.381Z,99.90
2019-02-11T02:07:44.227Z,99.90
2019-02-11T02:10:15.061Z,99.90
2019-02-11T02:12:45.175Z,99.90
2019-02-11T02:15:15.246Z,99.90
2019-02-11T02:17:45.391Z,99.90
2019-02-11T02:20:16.157Z,99.90
2019-02-11T02:22:46.007Z,99.90
2019-02-11T02:25:15.885Z,99.90
2019-02-11T02:27:45.895Z,99.90
2019-02-11T02:30:16.114Z,99.90
2019-02-11T02:32:45.946Z,99.90
2019-02-11T02:35:15.988Z,99.90
2019-02-11T02:37:46.115Z,99.90
2019-02-11T02:40:16.031Z,99.90
2019-02-11T02:42:45.885Z,99.90
2019-02-11T02:45:15.698Z,99.90
2019-02-11T02:47:45.705Z,99.90
2019-02-11T02:50:15.628Z,99.90
2019-02-11T02:52:45.433Z,99.90
2019-02-11T02:55:15.619Z,99.90
2019-02-11T02:57:45.547Z,99.90
2019-02-11T03:00:15.386Z,99.90
2019-02-11T03:02:45.327Z,99.90
2019-02-11T03:05:15.108Z,99.90
2019-02-11T03:07:45.105Z,99.90
2019-02-11T03:10:14.879Z,99.90
2019-02-11T03:12:44.662Z,99.90
2019-02-11T03:15:14.529Z,99.90
2019-02-11T03:17:44.318Z,99.90
2019-02-11T03:20:14.301Z,99.90
2019-02-11T03:22:44.226Z,99.90
2019-02-11T03:25:14.024Z,99.90
2019-02-11T03:27:43.998Z,99.90
2019-02-11T03:30:13.779Z,99.90
2019-02-11T03:32:43.611Z,99.90
2019-02-11T03:35:13.623Z,99.90
2019-02-11T03:37:43.484Z,99.90
2019-02-11T03:40:13.218Z,99.90
2019-02-11T03:42:43.074Z,99.90
2019-02-11T03:45:14.403Z,99.90
2019-02-11T03:47:44.250Z,99.90
2019-02-11T03:50:15.064Z,99.90
2019-02-11T03:52:44.849Z,99.90
2019-02-11T03:55:14.716Z,99.90
2019-02-11T03:57:45.362Z,99.90
2019-02-11T04:00:15.543Z,99.90
2019-02-11T04:02:45.991Z,99.90
2019-02-11T04:05:16.501Z,99.90
2019-02-11T04:07:46.389Z,99.90
2019-02-11T04:10:16.609Z,99.90
2019-02-11T04:12:46.806Z,99.90
2019-02-11T04:15:16.819Z,99.90
2019-02-11T04:17:46.761Z,99.90
2019-02-11T04:20:16.796Z,99.90
2019-02-11T04:22:46.674Z,99.90
2019-02-11T04:25:16.576Z,99.90
2019-02-11T04:27:46.522Z,99.90
2019-02-11T04:30:16.381Z,99.90
2019-02-11T04:32:46.204Z,99.90
2019-02-11T04:35:16.444Z,99.90
2019-02-11T04:37:46.334Z,99.90
2019-02-11T04:40:16.582Z,99.90
2019-02-11T04:42:46.438Z,99.90
2019-02-11T04:45:16.306Z,99.90
2019-02-11T04:47:46.146Z,99.90
2019-02-11T04:50:16.353Z,99.90
2019-02-11T04:52:46.207Z,99.90
2019-02-11T04:55:16.261Z,99.90
2019-02-11T04:57:46.228Z,99.90
2019-02-11T05:00:16.266Z,99.90
2019-02-11T05:02:46.217Z,99.90
2019-02-11T05:05:16.692Z,99.90
2019-02-11T05:07:46.637Z,99.90
2019-02-11T05:10:16.687Z,99.90
2019-02-11T05:12:46.681Z,99.90
2019-02-11T05:15:16.551Z,99.90
2019-02-11T05:17:46.483Z,99.90
2019-02-11T05:20:16.355Z,99.90
2019-02-11T05:22:46.155Z,99.90
2019-02-11T05:25:15.957Z,99.90
2019-02-11T05:27:45.936Z,99.90
2019-02-11T05:30:15.910Z,99.90
2019-02-11T05:32:45.881Z,99.90
2019-02-11T05:35:15.699Z,99.90
2019-02-11T05:37:46.086Z,99.90
2019-02-11T05:40:15.970Z,99.90
2019-02-11T05:42:45.756Z,99.90
2019-02-11T05:45:15.503Z,99.90
2019-02-11T05:47:45.308Z,99.90
2019-02-11T05:50:15.079Z,99.90
2019-02-11T05:52:44.958Z,99.90
2019-02-11T05:55:14.750Z,99.90
2019-02-11T05:57:44.676Z,99.90
2019-02-11T06:00:16.397Z,99.90
2019-02-11T06:02:46.309Z,99.90
2019-02-11T06:05:16.188Z,99.90
2019-02-11T06:07:46.636Z,99.90
2019-02-11T06:10:17.157Z,99.90
2019-02-11T06:12:47.661Z,99.90
2019-02-11T06:15:19.833Z,99.90
2019-02-11T06:17:50.402Z,99.90
2019-02-11T06:20:20.219Z,99.90
2019-02-11T06:22:50.012Z,99.90
2019-02-11T06:25:19.913Z,99.90
2019-02-11T06:27:49.699Z,99.90
2019-02-11T06:30:19.462Z,99.90
2019-02-11T06:32:49.295Z,99.90
2019-02-11T06:35:20.003Z,99.90
2019-02-11T06:37:50.045Z,99.90
2019-02-11T06:40:19.886Z,99.90
2019-02-11T06:42:49.693Z,99.90
2019-02-11T06:45:19.645Z,99.90
2019-02-11T06:47:49.424Z,99.90
2019-02-11T06:50:19.181Z,99.90
2019-02-11T06:52:48.911Z,99.90
2019-02-11T06:55:18.730Z,99.90
2019-02-11T06:57:48.464Z,99.90
2019-02-11T07:00:19.249Z,99.90
2019-02-11T07:02:49.168Z,99.90
2019-02-11T07:05:18.997Z,99.90
2019-02-11T07:07:48.971Z,99.90
2019-02-11T07:10:18.795Z,99.90
2019-02-11T07:12:48.528Z,99.90
2019-02-11T07:15:22.083Z,99.90
2019-02-11T07:17:49.717Z,99.90
2019-02-11T07:20:19.458Z,99.90
2019-02-11T07:22:49.203Z,99.90
2019-02-11T07:25:19.004Z,99.90
2019-02-11T07:27:48.829Z,99.90
2019-02-11T07:30:18.661Z,99.90
2019-02-11T07:32:48.537Z,99.90
2019-02-11T07:35:18.285Z,99.90
2019-02-11T07:37:48.151Z,99.90
2019-02-11T07:40:18.049Z,99.90
2019-02-11T07:43:19.049Z,99.90
2019-02-11T07:46:13.338Z,99.90
2019-02-11T07:48:43.159Z,99.90
2019-02-11T07:51:12.950Z,99.90
2019-02-11T07:53:42.657Z,99.90
2019-02-11T07:56:12.371Z,99.90
2019-02-11T07:58:42.172Z,99.90
2019-02-11T08:01:11.972Z,99.90
2019-02-11T08:03:41.753Z,99.90
2019-02-11T08:06:11.525Z,99.90
2019-02-11T08:08:41.297Z,99.90
2019-02-11T08:11:12.480Z,99.90
2019-02-11T08:13:42.415Z,99.90
2019-02-11T08:16:12.227Z,99.90
2019-02-11T08:18:42.001Z,99.90
2019-02-11T08:21:11.763Z,99.90
2019-02-11T08:23:41.597Z,99.90
2019-02-11T08:26:11.451Z,99.90
2019-02-11T08:28:41.317Z,99.90
2019-02-11T08:31:11.173Z,99.90
2019-02-11T08:33:41.108Z,99.90
2019-02-11T08:36:10.860Z,99.90
2019-02-11T08:38:40.944Z,99.90
2019-02-11T08:41:10.633Z,99.90
2019-02-11T08:43:40.383Z,99.90
2019-02-11T08:46:10.294Z,99.90
2019-02-11T08:48:40.157Z,99.90
2019-02-11T08:51:10.000Z,99.90
2019-02-11T08:53:39.788Z,99.90
2019-02-11T08:56:09.538Z,99.90
2019-02-11T08:58:39.451Z,99.90
2019-02-11T09:01:09.264Z,99.90
2019-02-11T09:03:39.160Z,99.90
2019-02-11T09:06:09.106Z,99.90
2019-02-11T09:08:38.930Z,99.90
2019-02-11T09:11:08.840Z,99.90
2019-02-11T09:13:38.626Z,99.90
2019-02-11T09:16:08.373Z,99.90
2019-02-11T09:18:38.195Z,99.90
2019-02-11T09:21:07.934Z,99.90
2019-02-11T09:23:37.680Z,99.90
2019-02-11T09:26:07.458Z,99.90
2019-02-11T09:28:37.188Z,99.90
2019-02-11T09:31:07.012Z,99.90
2019-02-11T09:33:36.834Z,99.90
2019-02-11T09:36:06.530Z,99.90
2019-02-11T09:38:36.243Z,99.90
2019-02-11T09:41:05.937Z,99.90
2019-02-11T09:43:35.666Z,99.90
2019-02-11T09:46:05.428Z,99.90
2019-02-11T09:48:35.253Z,99.90
2019-02-11T09:51:05.650Z,99.90
2019-02-11T09:53:35.461Z,99.90
2019-02-11T09:56:05.276Z,99.90
2019-02-11T09:58:35.077Z,99.90
2019-02-11T10:01:05.689Z,99.90
2019-02-11T10:03:35.440Z,99.90
2019-02-11T10:06:05.331Z,99.90
2019-02-11T10:08:35.134Z,99.90
2019-02-11T10:11:05.050Z,99.90
2019-02-11T10:13:34.913Z,99.90
2019-02-11T10:16:12.378Z,99.90
2019-02-11T10:18:36.311Z,99.90
2019-02-11T10:21:06.029Z,99.90
2019-02-11T10:23:35.897Z,99.90
2019-02-11T10:26:05.753Z,99.90
2019-02-11T10:28:35.578Z,99.90
2019-02-11T10:31:06.202Z,99.90
2019-02-11T10:33:36.103Z,99.90
2019-02-11T10:36:05.923Z,99.90
2019-02-11T10:38:36.725Z,99.90
2019-02-11T10:41:06.857Z,99.90
2019-02-11T10:43:36.727Z,99.90
2019-02-11T10:46:06.459Z,99.90
2019-02-11T10:48:36.814Z,99.90
2019-02-11T10:51:06.625Z,99.90
2019-02-11T10:53:36.403Z,99.90
2019-02-11T10:56:06.170Z,99.90
2019-02-11T10:58:35.990Z,99.90
2019-02-11T11:01:05.949Z,99.90
2019-02-11T11:03:35.823Z,99.90
2019-02-11T11:06:05.631Z,99.90
2019-02-11T11:08:35.407Z,99.90
2019-02-11T11:11:05.197Z,99.90
2019-02-11T11:13:34.931Z,99.90
2019-02-11T11:16:05.322Z,99.90
2019-02-11T11:18:35.148Z,99.90
2019-02-11T11:21:06.058Z,99.90
2019-02-11T11:23:35.973Z,99.90
2019-02-11T11:26:05.755Z,99.90
2019-02-11T11:28:35.439Z,99.90
2019-02-11T11:31:05.256Z,99.90
2019-02-11T11:33:35.512Z,99.90
2019-02-11T11:36:05.615Z,99.90
2019-02-11T11:38:35.468Z,99.90
2019-02-11T11:41:05.751Z,99.90
2019-02-11T11:43:35.560Z,99.90
2019-02-11T11:46:05.408Z,99.90
2019-02-11T11:48:35.212Z,99.90
2019-02-11T11:51:04.992Z,99.90
2019-02-11T11:53:34.868Z,99.90
2019-02-11T11:56:04.674Z,99.90
2019-02-11T11:58:34.449Z,99.90
2019-02-11T12:01:04.446Z,99.90
2019-02-11T12:03:34.205Z,99.90
2019-02-11T12:06:04.813Z,99.90
2019-02-11T12:08:34.965Z,99.80
2019-02-11T12:11:05.259Z,99.50
2019-02-11T12:13:35.083Z,99.10
2019-02-11T12:16:04.943Z,99.90
2019-02-11T12:18:34.748Z,99.30
2019-02-11T12:21:04.580Z,99.00
2019-02-11T12:23:34.495Z,99.50
2019-02-11T12:26:04.314Z,97.70
2019-02-11T12:28:34.219Z,98.40
2019-02-11T12:31:04.319Z,98.20
2019-02-11T12:33:34.228Z,97.60
2019-02-11T12:36:04.116Z,97.50
2019-02-11T12:38:34.049Z,96.80
2019-02-11T12:41:03.825Z,97.50
2019-02-11T12:43:33.686Z,96.80
2019-02-11T12:46:03.585Z,96.50
2019-02-11T12:48:33.507Z,97.30
2019-02-11T12:51:03.446Z,97.20
2019-02-11T12:53:33.307Z,97.00
2019-02-11T12:56:03.314Z,96.60
2019-02-11T12:58:33.517Z,96.40
2019-02-11T13:01:03.670Z,97.30
2019-02-11T13:03:33.595Z,97.00
2019-02-11T13:06:03.486Z,96.40
2019-02-11T13:08:35.378Z,96.80
2019-02-11T13:11:04.667Z,97.40
2019-02-11T13:13:34.460Z,96.50
2019-02-11T13:16:04.429Z,97.00
2019-02-11T13:18:38.843Z,97.70
2019-02-11T13:21:05.562Z,97.10
2019-02-11T13:23:35.395Z,96.80
2019-02-11T13:26:05.285Z,96.40
2019-02-11T13:28:35.228Z,96.20
2019-02-11T13:31:05.130Z,95.90
2019-02-11T13:33:34.953Z,96.10
2019-02-11T13:36:05.902Z,96.00
2019-02-11T13:38:35.734Z,96.50
2019-02-11T13:41:05.565Z,96.60
2019-02-11T13:43:35.360Z,96.40
2019-02-11T13:46:05.234Z,95.90
2019-02-11T13:48:35.121Z,95.50
2019-02-11T13:51:04.923Z,95.90
2019-02-11T13:53:34.724Z,95.20
2019-02-11T13:56:05.526Z,95.70
2019-02-11T13:58:35.322Z,95.90
2019-02-11T14:01:08.218Z,96.20
2019-02-11T14:03:38.092Z,96.70
2019-02-11T14:06:07.931Z,95.40
2019-02-11T14:08:37.725Z,95.80
2019-02-11T14:11:07.542Z,95.70
2019-02-11T14:13:37.292Z,95.60
2019-02-11T14:16:07.083Z,95.50
2019-02-11T14:18:36.878Z,95.60
2019-02-11T14:21:06.738Z,96.40
2019-02-11T14:23:36.600Z,96.80
2019-02-11T14:26:06.511Z,96.50
2019-02-11T14:28:36.291Z,96.90
2019-02-11T14:31:06.073Z,96.90
2019-02-11T14:33:36.014Z,96.60
2019-02-11T14:36:05.934Z,96.90
2019-02-11T14:38:35.711Z,96.60
2019-02-11T14:41:05.501Z,96.30
2019-02-11T14:43:35.303Z,96.90
2019-02-11T14:46:05.049Z,96.20
2019-02-11T14:48:34.943Z,95.90
2019-02-11T14:51:04.906Z,95.80
2019-02-11T14:53:34.769Z,95.30
2019-02-11T14:56:04.567Z,95.10
2019-02-11T14:58:34.352Z,94.80
2019-02-11T15:01:04.760Z,95.00
2019-02-11T15:03:34.590Z,95.10
2019-02-11T15:06:04.438Z,95.00
2019-02-11T15:08:34.308Z,95.50
2019-02-11T15:11:04.100Z,95.20
2019-02-11T15:13:33.862Z,95.40
2019-02-11T15:16:03.785Z,95.40
2019-02-11T15:18:34.495Z,94.90
2019-02-11T15:21:04.444Z,95.50
2019-02-11T15:23:34.332Z,95.00
2019-02-11T15:26:04.362Z,95.60
2019-02-11T15:28:34.341Z,95.90
2019-02-11T15:31:04.130Z,95.50
2019-02-11T15:33:33.976Z,95.20
2019-02-11T15:36:03.908Z,95.40
2019-02-11T15:38:33.769Z,95.20
2019-02-11T15:41:03.640Z,94.90
2019-02-11T15:43:40.154Z,95.40
2019-02-11T15:46:10.446Z,95.60
2019-02-11T15:48:43.059Z,95.20
2019-02-11T15:51:11.568Z,95.70
2019-02-11T15:53:41.377Z,95.90
2019-02-11T15:56:11.378Z,96.00
2019-02-11T15:58:41.194Z,95.40
2019-02-11T16:01:10.977Z,95.80
2019-02-11T16:03:40.815Z,95.70
2019-02-11T16:06:11.182Z,95.40
2019-02-11T16:08:42.924Z,96.00
2019-02-11T16:11:12.832Z,96.30
2019-02-11T16:13:42.566Z,95.50
2019-02-11T16:16:12.478Z,95.60
2019-02-11T16:18:42.236Z,95.40
2019-02-11T16:21:12.083Z,95.50
2019-02-11T16:23:41.913Z,95.40
2019-02-11T16:26:11.656Z,95.80
2019-02-11T16:28:41.385Z,96.00
2019-02-11T16:31:26.716Z,96.00
2019-02-11T16:33:56.515Z,95.40
2019-02-11T16:36:26.300Z,95.70
2019-02-11T16:38:56.047Z,96.10
2019-02-11T16:41:25.948Z,95.90
2019-02-11T16:43:55.931Z,96.40
2019-02-11T16:46:25.881Z,96.40
2019-02-11T16:49:00.625Z,96.60
2019-02-11T16:51:27.885Z,96.80
2019-02-11T16:53:57.720Z,97.10
2019-02-11T16:56:27.623Z,97.30
2019-02-11T16:58:57.411Z,97.50
2019-02-11T17:01:27.283Z,97.40
2019-02-11T17:03:57.135Z,97.40
2019-02-11T17:06:26.932Z,97.30
2019-02-11T17:08:56.807Z,97.40
2019-02-11T17:11:45.657Z,97.50
2019-02-11T17:14:15.561Z,97.60
2019-02-11T17:16:45.235Z,97.60
2019-02-11T17:19:15.361Z,97.50
2019-02-11T17:21:45.190Z,97.60
2019-02-11T17:24:14.913Z,97.50
2019-02-11T17:26:44.794Z,97.60
2019-02-11T17:29:14.661Z,97.60
2019-02-11T17:31:44.478Z,97.70
2019-02-11T17:34:14.331Z,97.80
2019-02-11T17:36:44.078Z,98.00
2019-02-11T17:39:13.817Z,98.10
2019-02-11T17:41:43.641Z,98.00
2019-02-11T17:44:13.449Z,97.70
2019-02-11T17:47:02.443Z,97.80
2019-02-11T17:49:32.483Z,98.20
2019-02-11T17:52:02.962Z,98.70
2019-02-11T17:54:32.867Z,99.20
2019-02-11T17:57:02.981Z,99.50
2019-02-11T17:59:32.813Z,99.70
2019-02-11T18:02:02.908Z,99.90
2019-02-11T18:04:32.723Z,99.90
2019-02-11T18:07:02.546Z,99.90
2019-02-11T18:09:32.357Z,99.90
2019-02-11T18:12:02.210Z,99.90
2019-02-11T18:14:32.142Z,99.90
2019-02-11T18:17:02.129Z,99.90
2019-02-11T18:19:32.102Z,99.90
2019-02-11T18:22:02.006Z,99.90
2019-02-11T18:24:42.620Z,99.90
2019-02-11T18:27:20.496Z,99.90
2019-02-11T18:30:08.212Z,99.90
2019-02-11T18:32:38.136Z,99.90
2019-02-11T18:35:18.862Z,99.90
2019-02-11T18:37:49.185Z,99.90
2019-02-11T18:40:23.639Z,99.90
2019-02-11T18:42:53.548Z,99.90
2019-02-11T18:45:32.572Z,99.90
2019-02-11T18:48:03.294Z,99.90
2019-02-11T18:50:33.537Z,99.90
2019-02-11T18:53:03.416Z,99.90
2019-02-11T18:55:33.338Z,99.90
2019-02-11T18:58:03.561Z,99.90
2019-02-11T19:00:33.669Z,99.90
2019-02-11T19:03:03.586Z,99.90
2019-02-11T19:05:33.754Z,99.90
2019-02-11T19:08:03.677Z,99.90
2019-02-11T19:10:33.556Z,99.90
2019-02-11T19:13:03.455Z,99.90
2019-02-11T19:15:33.485Z,99.90
2019-02-11T19:18:03.289Z,99.90
2019-02-11T19:20:33.249Z,99.90
2019-02-11T19:23:04.408Z,99.90
2019-02-11T19:25:34.230Z,99.90
2019-02-11T19:28:04.012Z,99.90
2019-02-11T19:30:33.853Z,99.90
2019-02-11T19:33:03.736Z,99.90
2019-02-11T19:35:33.816Z,99.90
2019-02-11T19:38:03.719Z,99.90
2019-02-11T19:40:33.728Z,99.90
2019-02-11T19:43:09.720Z,99.90
2019-02-11T19:45:39.589Z,99.90
2019-02-11T19:48:09.555Z,99.90
2019-02-11T19:50:39.458Z,99.90
2019-02-11T19:53:09.254Z,99.90
2019-02-11T19:55:39.171Z,99.90
2019-02-11T19:58:08.959Z,99.90
2019-02-11T20:00:38.742Z,99.90
2019-02-11T20:03:08.618Z,99.90
2019-02-11T20:05:38.479Z,99.90
2019-02-11T20:08:08.273Z,99.90
2019-02-11T20:10:38.228Z,99.90
2019-02-11T20:13:07.979Z,99.90
2019-02-11T20:15:37.853Z,99.90
2019-02-11T20:18:07.635Z,99.90
2019-02-11T20:20:37.417Z,99.90
2019-02-11T20:23:07.327Z,99.90
2019-02-11T20:25:37.138Z,99.90
2019-02-11T20:28:07.025Z,99.90
2019-02-11T20:30:37.055Z,99.90
2019-02-11T20:33:07.234Z,99.90
2019-02-11T20:35:37.479Z,99.90
2019-02-11T20:38:07.374Z,99.90
2019-02-11T20:40:37.361Z,99.90
2019-02-11T20:43:07.200Z,99.90
2019-02-11T20:45:37.072Z,99.90
2019-02-11T20:48:06.796Z,99.90
2019-02-11T20:50:36.732Z,99.90
2019-02-11T20:53:06.534Z,99.90
2019-02-11T20:55:36.349Z,99.90
2019-02-11T21:05:11.576Z,99.90
2019-02-11T21:07:41.520Z,99.90
2019-02-11T21:10:12.640Z,99.90
2019-02-11T21:23:23.654Z,99.90
2019-02-11T21:25:53.495Z,99.90
2019-02-11T21:28:23.387Z,99.90
2019-02-11T21:30:53.414Z,99.90
2019-02-11T21:33:23.526Z,99.90
2019-02-11T21:35:53.359Z,99.90
2019-02-11T21:38:23.261Z,99.90
2019-02-11T21:40:53.206Z,99.90
2019-02-11T21:43:23.075Z,99.90
2019-02-11T21:45:56.122Z,99.90
2019-02-11T21:48:27.627Z,99.90
2019-02-11T21:50:57.535Z,99.90
2019-02-11T21:53:27.419Z,99.90
2019-02-11T21:55:57.250Z,99.90
2019-02-11T21:58:27.153Z,99.90
2019-02-11T22:01:02.443Z,99.90
2019-02-11T22:03:30.259Z,99.90
2019-02-11T22:05:59.899Z,99.90
2019-02-11T22:08:29.940Z,99.90
2019-02-11T22:10:59.893Z,99.90
2019-02-11T22:13:30.523Z,99.90
2019-02-11T22:16:00.842Z,99.90
2019-02-11T22:18:30.644Z,99.90
2019-02-11T22:21:00.555Z,99.90
2019-02-11T22:23:30.453Z,99.90
2019-02-11T22:26:00.295Z,99.90
2019-02-11T22:28:30.462Z,99.90
2019-02-11T22:31:00.435Z,99.90
2019-02-11T22:33:30.401Z,99.90
2019-02-11T22:36:00.212Z,99.90
2019-02-11T22:38:30.103Z,99.90
2019-02-11T22:40:59.910Z,99.90
2019-02-11T22:43:29.870Z,99.90
2019-02-11T22:45:59.730Z,99.90
2019-02-11T22:48:29.862Z,99.90
2019-02-11T22:50:59.586Z,99.90
2019-02-11T22:53:29.421Z,99.90
2019-02-11T22:55:59.537Z,99.90
2019-02-11T23:05:35.730Z,99.90
2019-02-11T23:08:05.856Z,99.90
2019-02-11T23:10:35.727Z,99.90
2019-02-11T23:13:05.440Z,99.90
2019-02-11T23:15:35.402Z,99.90
2019-02-11T23:18:05.171Z,99.90
2019-02-11T23:20:35.036Z,99.90
2019-02-11T23:23:04.856Z,99.90
2019-02-11T23:25:34.576Z,99.90
2019-02-11T23:28:04.469Z,99.90
2019-02-11T23:30:34.592Z,99.90
2019-02-11T23:33:04.466Z,99.90
2019-02-11T23:35:35.358Z,99.90
2019-02-11T23:38:05.250Z,99.90
2019-02-11T23:40:39.499Z,99.90
2019-02-11T23:43:09.637Z,99.90
2019-02-11T23:45:39.626Z,99.90
2019-02-11T23:48:09.597Z,99.90
2019-02-11T23:50:39.472Z,99.90
2019-02-11T23:53:09.369Z,99.90
2019-02-11T23:55:39.154Z,99.90
2019-02-11T23:58:09.064Z,99.90
